Time;durP1;ratioP1;P1;durP2;ratioP2;P2;SDS_P1;SDS_P2;PMS_P1;PMS_P2;Temp;Humidity;BMP_temperature;BMP_pressure;BME280_temperature;BME280_humidity;BME280_pressure;Samples;Min_cycle;Max_cycle;Signal;HPM_P1;HPM_P2
2024/03/20 00:04:23;;;;;;;37.25;22.02;;;;;;;11.19;73.08;100732.91;10167995;29;20075;-85
2024/03/20 00:09:24;;;;;;;37.60;22.33;;;;;;;11.20;72.93;100730.13;10166343;29;20043;-84
2024/03/20 00:14:25;;;;;;;36.17;21.50;;;;;;;11.18;72.96;100725.84;10179199;29;20043;-85
2024/03/20 00:19:26;;;;;;;35.80;21.23;;;;;;;11.18;72.57;100728.53;10184600;29;20110;-84
2024/03/20 00:24:26;;;;;;;32.60;20.73;;;;;;;11.16;72.60;100730.47;10171357;29;20047;-85
2024/03/20 00:29:27;;;;;;;35.28;21.90;;;;;;;11.11;72.78;100722.75;10163716;29;20099;-85
2024/03/20 00:34:29;;;;;;;34.87;20.03;;;;;;;11.14;72.42;100721.69;10193054;29;20183;-85
2024/03/20 00:39:30;;;;;;;36.17;20.73;;;;;;;11.18;72.48;100729.38;10185517;29;20054;-85
2024/03/20 00:44:30;;;;;;;33.75;20.23;;;;;;;11.18;72.43;100726.69;10166641;29;20059;-85
2024/03/20 00:49:32;;;;;;;37.97;21.23;;;;;;;11.20;72.40;100723.91;10158014;29;20074;-86
2024/03/20 00:54:33;;;;;;;34.43;20.40;;;;;;;11.16;72.21;100719.72;10131022;29;20063;-85
2024/03/20 00:59:34;;;;;;;33.47;20.83;;;;;;;11.13;72.62;100718.13;10127377;29;20048;-84
2024/03/20 01:04:35;;;;;;;38.65;21.02;;;;;;;11.07;73.38;100715.88;10175907;29;20468;-85
2024/03/20 01:09:35;;;;;;;32.20;19.83;;;;;;;11.01;73.88;100706.47;10175431;29;20039;-84
2024/03/20 01:14:36;;;;;;;34.75;19.80;;;;;;;11.05;74.00;100712.47;10163779;29;20040;-85
2024/03/20 01:19:37;;;;;;;35.58;20.13;;;;;;;11.12;73.25;100710.16;10124483;29;20087;-87
2024/03/20 01:24:38;;;;;;;35.83;19.17;;;;;;;11.18;72.71;100713.25;10146051;29;20059;-85
2024/03/20 01:29:38;;;;;;;31.95;18.85;;;;;;;11.20;72.41;100705.91;10139454;29;20044;-84
2024/03/20 01:34:40;;;;;;;30.60;19.27;;;;;;;11.16;71.90;100706.28;10161673;29;20063;-85
2024/03/20 01:39:41;;;;;;;31.10;17.27;;;;;;;11.14;71.72;100703.72;10119080;29;20384;-85
2024/03/20 01:44:42;;;;;;;28.60;19.00;;;;;;;11.15;71.80;100704.56;10148010;29;20356;-85
2024/03/20 01:49:44;;;;;;;33.38;20.45;;;;;;;11.13;71.75;100693.94;10132315;29;20591;-85
2024/03/20 01:54:45;;;;;;;30.77;19.05;;;;;;;11.15;72.04;100696.50;10146903;29;20114;-85
2024/03/20 01:59:46;;;;;;;31.10;19.52;;;;;;;11.11;72.07;100706.63;10113496;29;20107;-85
2024/03/20 02:04:46;;;;;;;30.13;18.42;;;;;;;11.06;72.55;100693.53;10149647;29;20056;-85
2024/03/20 02:09:47;;;;;;;30.13;18.58;;;;;;;11.02;72.96;100697.41;10190245;29;20043;-86
2024/03/20 02:14:48;;;;;;;30.83;18.35;;;;;;;10.99;73.19;100696.81;10145029;29;20100;-85
2024/03/20 02:19:49;;;;;;;31.70;18.65;;;;;;;10.94;73.49;100691.81;10164914;29;20143;-85
2024/03/20 02:24:51;;;;;;;33.25;18.40;;;;;;;10.81;73.83;100689.22;10129343;29;20048;-85
2024/03/20 02:29:51;;;;;;;32.20;19.03;;;;;;;10.73;74.12;100694.31;10117811;29;20092;-85
2024/03/20 02:34:53;;;;;;;29.88;18.52;;;;;;;10.67;74.16;100686.75;10124996;29;20300;-84
2024/03/20 02:39:53;;;;;;;32.67;18.20;;;;;;;10.60;74.34;100686.34;10202675;29;20506;-87
2024/03/20 02:44:54;;;;;;;32.13;18.30;;;;;;;10.57;74.36;100688.41;10167922;29;20059;-87
2024/03/20 02:49:56;;;;;;;31.05;18.67;;;;;;;10.51;74.23;100691.56;10149631;29;20108;-87
2024/03/20 02:54:57;;;;;;;35.80;18.42;;;;;;;10.44;73.93;100685.78;10141045;29;20127;-88
2024/03/20 02:59:58;;;;;;;30.27;17.97;;;;;;;10.43;74.25;100684.09;10168184;29;20048;-88
2024/03/20 03:11:48;;;;;;;32.08;17.63;;;;;;;10.27;74.36;100684.38;10180225;29;20045;-86
2024/03/20 03:16:48;;;;;;;29.58;17.40;;;;;;;10.23;74.49;100676.66;10158463;29;20056;-87
2024/03/20 03:21:49;;;;;;;30.00;18.25;;;;;;;10.17;74.73;100680.66;10159774;29;20049;-86
2024/03/20 03:26:51;;;;;;;30.25;17.27;;;;;;;10.13;74.85;100682.72;10145296;29;20076;-86
2024/03/20 03:31:51;;;;;;;30.13;16.80;;;;;;;10.12;74.74;100682.81;10147020;29;20048;-86
2024/03/20 03:36:52;;;;;;;26.98;16.38;;;;;;;10.09;74.82;100685.75;10127453;29;20376;-86
2024/03/20 03:41:53;;;;;;;32.28;17.60;;;;;;;10.13;74.84;100681.88;10139438;29;20058;-86
2024/03/20 03:46:54;;;;;;;29.52;16.55;;;;;;;10.14;74.89;100688.94;10141039;29;20048;-87
2024/03/20 03:51:55;;;;;;;29.20;16.73;;;;;;;10.24;74.71;100687.28;10148864;29;20052;-86
2024/03/20 03:56:57;;;;;;;27.83;16.48;;;;;;;10.27;74.40;100689.75;10161242;29;20060;-86
2024/03/20 04:01:58;;;;;;;28.47;16.07;;;;;;;10.22;74.35;100694.59;10123117;29;20119;-87
2024/03/20 04:06:58;;;;;;;23.95;15.25;;;;;;;10.21;74.54;100698.28;10161377;29;20055;-86
2024/03/20 04:11:59;;;;;;;30.00;16.48;;;;;;;10.19;74.40;100692.16;10159407;29;20073;-87
2024/03/20 04:17:00;;;;;;;26.25;15.85;;;;;;;10.07;75.17;100706.50;10120997;29;20509;-87
2024/03/20 04:22:02;;;;;;;30.58;17.55;;;;;;;9.99;75.72;100703.53;10121572;29;20067;-86
2024/03/20 04:27:04;;;;;;;30.95;16.42;;;;;;;10.00;76.15;100697.16;10130015;29;20576;-86
2024/03/20 04:32:05;;;;;;;26.93;15.50;;;;;;;10.01;76.43;100693.50;10127537;29;20471;-86
2024/03/20 04:37:06;;;;;;;30.08;15.95;;;;;;;9.99;76.35;100704.38;10161007;29;20052;-86
2024/03/20 04:42:08;;;;;;;32.10;17.08;;;;;;;9.87;76.32;100703.47;10161495;29;20139;-87
2024/03/20 04:47:09;;;;;;;26.15;15.82;;;;;;;9.76;76.63;100706.00;10173057;29;20049;-87
2024/03/20 04:52:09;;;;;;;32.38;17.55;;;;;;;9.70;77.18;100699.25;10121255;29;20060;-86
2024/03/20 04:57:10;;;;;;;25.60;16.50;;;;;;;9.63;77.10;100700.69;10157226;29;20041;-88
2024/03/20 05:02:11;;;;;;;26.38;16.27;;;;;;;9.69;77.00;100696.69;10169177;29;20056;-89
2024/03/20 05:07:12;;;;;;;30.08;15.40;;;;;;;9.66;76.64;100696.94;10164080;29;20052;-86
2024/03/20 05:12:12;;;;;;;34.28;17.77;;;;;;;9.73;76.05;100703.53;10149197;29;20044;-86
2024/03/20 05:17:13;;;;;;;28.42;14.93;;;;;;;9.76;75.83;100699.78;10142917;29;20074;-87
2024/03/20 05:22:14;;;;;;;26.42;15.57;;;;;;;9.87;75.44;100702.56;10146823;29;20056;-86
2024/03/20 05:27:15;;;;;;;28.60;15.77;;;;;;;9.93;75.19;100715.56;10160018;29;20051;-88
2024/03/20 05:32:15;;;;;;;32.55;15.70;;;;;;;9.95;75.02;100708.22;10141717;29;20049;-86
2024/03/20 05:37:18;;;;;;;25.60;14.48;;;;;;;9.91;75.29;100712.13;10114553;29;20079;-86
2024/03/20 05:42:18;;;;;;;25.80;14.15;;;;;;;9.85;75.39;100702.66;10166790;29;20062;-86
2024/03/20 05:47:19;;;;;;;25.05;15.95;;;;;;;9.85;75.46;100710.72;10163601;29;20063;-88
2024/03/20 05:52:20;;;;;;;28.75;16.48;;;;;;;9.92;75.32;100711.16;10174181;29;20076;-87
2024/03/20 05:57:21;;;;;;;25.90;15.05;;;;;;;10.00;75.10;100722.19;10159299;29;20106;-86
2024/03/20 06:02:22;;;;;;;23.85;15.45;;;;;;;10.03;74.72;100716.59;10166915;29;20033;-86
2024/03/20 06:07:23;;;;;;;28.50;15.30;;;;;;;10.00;75.00;100727.53;10143627;29;20055;-87
2024/03/20 06:12:23;;;;;;;25.30;15.70;;;;;;;10.09;74.69;100734.06;10141484;29;20064;-87
2024/03/20 06:17:24;;;;;;;26.67;14.90;;;;;;;10.14;74.53;100723.84;10115188;29;20064;-87
2024/03/20 06:22:26;;;;;;;27.23;14.93;;;;;;;10.10;74.49;100717.00;10172518;29;20073;-89
2024/03/20 06:27:26;;;;;;;23.77;15.80;;;;;;;10.10;74.76;100728.59;10205705;29;20064;-88
2024/03/20 06:32:30;;;;;;;27.33;15.07;;;;;;;10.20;74.52;100731.44;10189837;29;20048;-85
2024/03/20 06:37:31;;;;;;;10.77;6.03;;;;;;;10.38;74.16;100740.81;10183850;29;20044;-85
2024/03/20 06:42:32;;;;;;;19.30;11.88;;;;;;;10.75;74.44;100738.06;10136848;29;20044;-86
2024/03/20 06:47:33;;;;;;;15.95;10.65;;;;;;;11.35;71.99;100733.44;10188996;29;20061;-85
2024/03/20 06:52:38;;;;;;;19.90;11.98;;;;;;;11.93;68.62;100736.00;10176088;29;20041;-85
2024/03/20 06:57:41;;;;;;;23.67;11.90;;;;;;;12.10;66.60;100735.47;10181891;29;20068;-88
2024/03/20 07:02:44;;;;;;;21.92;12.85;;;;;;;12.17;65.88;100735.81;10144086;29;20052;-86
2024/03/20 07:07:46;;;;;;;21.15;12.88;;;;;;;12.16;65.23;100755.66;10147248;29;20054;-85
2024/03/20 07:12:46;;;;;;;21.77;14.43;;;;;;;12.05;65.42;100756.53;10188086;29;20068;-86
2024/03/20 07:17:48;;;;;;;26.70;14.52;;;;;;;11.69;66.86;100754.97;10152789;29;20040;-85
2024/03/20 07:22:53;;;;;;;21.58;14.40;;;;;;;11.68;67.02;100759.53;10189209;29;20044;-87
2024/03/20 07:27:54;;;;;;;25.45;15.60;;;;;;;11.54;67.75;100758.88;10172900;29;20138;-87
2024/03/20 07:32:55;;;;;;;23.98;14.57;;;;;;;11.47;68.44;100758.53;10162956;29;20504;-87
2024/03/20 07:37:56;;;;;;;23.50;15.05;;;;;;;11.72;69.03;100771.72;10172587;29;20044;-86
2024/03/20 07:42:59;;;;;;;27.17;15.02;;;;;;;12.42;66.83;100772.38;10154883;29;20070;-87
2024/03/20 07:48:00;;;;;;;21.55;14.60;;;;;;;12.96;64.31;100771.44;10184968;29;20060;-85
2024/03/20 07:53:01;;;;;;;23.98;14.63;;;;;;;13.61;62.82;100774.03;10189949;29;20051;-88
2024/03/20 07:58:03;;;;;;;21.52;14.00;;;;;;;14.23;59.83;100772.09;10185339;29;20047;-86
2024/03/20 08:03:04;;;;;;;22.08;13.57;;;;;;;14.69;57.34;100773.31;10196507;29;20044;-84
2024/03/20 08:08:07;;;;;;;22.17;13.57;;;;;;;14.89;56.28;100774.19;10164277;29;20142;-85
2024/03/20 08:13:10;;;;;;;;;;;;;;;15.29;55.80;100771.28;10199781;29;20059;-86
2024/03/20 08:18:11;;;;;;;22.40;12.10;;;;;;;15.56;53.86;100772.41;10194071;29;19923;-87
2024/03/20 08:23:12;;;;;;;20.40;12.63;;;;;;;15.44;53.83;100780.69;10184627;29;20076;-86
2024/03/20 08:28:13;;;;;;;20.02;12.95;;;;;;;15.46;54.76;100775.13;10158721;29;20083;-84
2024/03/20 08:33:15;;;;;;;23.63;13.68;;;;;;;15.75;54.53;100780.44;10175612;29;20055;-84
2024/03/20 08:38:15;;;;;;;21.17;11.88;;;;;;;16.19;52.81;100780.66;10169592;29;20139;-85
2024/03/20 08:43:18;;;;;;;17.10;10.63;;;;;;;16.26;53.50;100787.19;10195192;29;20047;-85
2024/03/20 08:48:19;;;;;;;15.05;9.18;;;;;;;16.38;51.08;100778.88;10144992;29;20052;-83
2024/03/20 08:53:21;;;;;;;16.40;9.48;;;;;;;15.89;51.60;100785.38;10158040;29;20052;-80
2024/03/20 08:58:23;;;;;;;14.18;9.10;;;;;;;15.39;52.18;100784.84;10189832;29;20080;-80
2024/03/20 09:03:24;;;;;;;13.73;7.45;;;;;;;16.07;50.82;100787.28;10163205;29;20056;-81
2024/03/20 09:08:25;;;;;;;12.15;7.43;;;;;;;15.82;50.41;100789.66;10170736;29;20055;-80
2024/03/20 09:13:28;;;;;;;14.02;7.75;;;;;;;15.95;50.83;100783.91;10183484;29;20047;-80
2024/03/20 09:18:29;;;;;;;14.20;8.27;;;;;;;16.06;51.15;100783.72;10166853;29;20055;-82
2024/03/20 09:23:31;;;;;;;12.60;7.72;;;;;;;16.34;49.52;100783.72;10163931;29;20605;-82
2024/03/20 09:28:32;;;;;;;16.90;8.88;;;;;;;17.04;49.67;100775.78;10173927;29;20076;-80
2024/03/20 09:33:33;;;;;;;18.80;10.20;;;;;;;17.44;47.46;100768.94;10151707;29;20048;-80
2024/03/20 09:38:33;;;;;;;16.15;9.73;;;;;;;18.23;46.57;100767.00;10139181;29;21378;-80
2024/03/20 09:43:34;;;;;;;14.57;8.73;;;;;;;18.36;45.53;100761.94;10170736;29;20385;-80
2024/03/20 09:48:36;;;;;;;12.55;8.73;;;;;;;17.97;46.57;100759.78;10187596;29;20032;-80
2024/03/20 09:53:37;;;;;;;18.85;9.07;;;;;;;18.00;46.13;100761.31;10179837;29;20139;-79
2024/03/20 09:58:39;;;;;;;13.57;9.05;;;;;;;18.19;46.92;100754.75;10160625;29;20111;-78
2024/03/20 10:03:40;;;;;;;;;;;;;;;18.34;46.35;100747.66;10123830;29;20071;-79
2024/03/20 10:08:41;;;;;;;14.05;9.40;;;;;;;18.51;45.26;100748.53;10135080;28;20317;-79
2024/03/20 10:13:42;;;;;;;14.52;8.73;;;;;;;18.91;44.74;100739.59;10131615;29;20058;-80
2024/03/20 10:18:44;;;;;;;13.05;8.25;;;;;;;17.58;47.29;100734.91;10137572;28;20130;-80
2024/03/20 10:23:45;;;;;;;15.53;8.83;;;;;;;18.55;46.25;100739.03;10141917;28;20051;-78
2024/03/20 10:28:50;;;;;;;15.32;9.30;;;;;;;18.67;45.57;100734.94;10142541;28;20056;-80
2024/03/20 10:33:52;;;;;;;14.95;8.15;;;;;;;18.92;44.73;100735.81;10139490;28;20103;-79
2024/03/20 10:38:54;;;;;;;14.57;8.53;;;;;;;19.33;43.88;100734.94;10129960;28;20083;-79
2024/03/20 10:43:55;;;;;;;14.02;8.90;;;;;;;19.78;43.53;100739.78;10135778;29;20396;-79
2024/03/20 10:48:58;;;;;;;10.38;8.27;;;;;;;19.54;44.24;100742.56;10152558;29;20519;-78
2024/03/20 10:54:01;;;;;;;16.08;8.38;;;;;;;19.65;43.63;100737.59;10146734;28;20159;-79
2024/03/20 10:59:02;;;;;;;;;;;;;;;19.79;43.50;100737.91;10121614;28;20190;-80
2024/03/20 11:04:02;;;;;;;12.80;7.90;;;;;;;18.96;44.69;100744.53;10122042;28;19927;-79
2024/03/20 11:09:06;;;;;;;12.73;8.15;;;;;;;18.76;45.05;100739.38;10122468;29;20060;-79
2024/03/20 11:14:11;;;;;;;11.98;6.88;;;;;;;19.99;44.48;100735.59;10146769;28;20047;-79
2024/03/20 11:19:13;;;;;;;13.43;6.97;;;;;;;20.94;41.17;100728.00;10141532;29;20047;-79
2024/03/20 11:24:14;;;;;;;14.52;8.00;;;;;;;20.45;42.32;100731.09;10134218;28;20283;-78
2024/03/20 11:29:15;;;;;;;11.23;7.75;;;;;;;21.08;40.93;100720.91;10132164;29;20079;-79
2024/03/20 11:34:16;;;;;;;11.87;6.93;;;;;;;23.13;39.22;100726.41;10140084;29;20051;-79
2024/03/20 11:39:17;;;;;;;11.18;7.07;;;;;;;23.04;38.53;100724.81;10129299;28;20834;-79
2024/03/20 11:44:18;;;;;;;12.60;7.05;;;;;;;22.06;40.70;100725.28;10143443;28;20059;-79
2024/03/20 11:49:19;;;;;;;10.15;6.50;;;;;;;21.78;39.45;100719.66;10135893;28;20151;-79
2024/03/20 11:54:20;;;;;;;11.85;6.93;;;;;;;21.45;40.72;100719.19;10132832;28;20044;-79
2024/03/20 11:59:20;;;;;;;8.85;5.95;;;;;;;22.43;40.66;100719.78;10144097;29;20051;-79
2024/03/20 12:04:21;;;;;;;9.77;5.75;;;;;;;20.89;41.03;100722.22;10113847;29;20048;-80
2024/03/20 12:09:24;;;;;;;6.47;5.57;;;;;;;19.36;43.78;100707.34;10119932;28;20058;-79
2024/03/20 12:14:26;;;;;;;10.52;6.05;;;;;;;19.63;43.47;100715.13;10133831;28;20108;-80
2024/03/20 12:19:27;;;;;;;11.45;6.32;;;;;;;19.85;43.15;100712.66;10128429;28;20127;-79
2024/03/20 12:24:28;;;;;;;9.00;6.13;;;;;;;20.85;41.41;100701.81;10138223;29;20040;-79
2024/03/20 12:29:29;;;;;;;11.98;5.80;;;;;;;19.78;43.23;100704.34;10131124;28;20059;-79
2024/03/20 12:34:31;;;;;;;6.53;5.35;;;;;;;20.10;44.13;100695.16;10144698;29;20135;-79
2024/03/20 12:39:33;;;;;;;6.37;5.67;;;;;;;19.67;44.07;100688.41;10135546;28;20728;-79
2024/03/20 12:44:36;;;;;;;11.85;5.38;;;;;;;19.44;44.95;100694.59;10130692;28;20553;-79
2024/03/20 12:49:36;;;;;;;;;;;;;;;18.85;46.04;100690.44;10147596;28;20056;-80
2024/03/20 12:54:37;;;;;;;9.68;6.05;;;;;;;19.29;44.39;100679.97;10149218;28;19926;-78
2024/03/20 12:59:38;;;;;;;8.82;6.18;;;;;;;19.32;44.94;100673.31;10120488;28;20769;-78
2024/03/20 13:04:38;;;;;;;10.02;6.18;;;;;;;19.50;44.36;100676.69;10131055;28;20056;-78
2024/03/20 13:09:39;;;;;;;8.13;6.30;;;;;;;19.39;44.76;100671.59;10119681;28;20052;-78
2024/03/20 13:14:40;;;;;;;9.05;6.43;;;;;;;19.18;45.78;100664.00;10152496;28;20086;-78
2024/03/20 13:19:42;;;;;;;11.20;6.75;;;;;;;19.34;46.27;100660.41;10128571;28;20131;-79
2024/03/20 13:24:50;;;;;;;9.90;7.40;;;;;;;19.42;45.06;100657.63;10139840;28;20600;-80
2024/03/20 13:29:52;;;;;;;9.98;6.07;;;;;;;19.38;45.28;100659.00;10139418;29;20481;-79
2024/03/20 13:35:01;;;;;;;11.07;7.15;;;;;;;18.75;47.47;100647.88;10146027;29;20043;-77
2024/03/20 13:40:51;;;;;;;8.48;6.13;;;;;;;19.01;46.66;100655.03;10160109;29;21664;-79
2024/03/20 13:45:29;;;;;;;10.02;6.63;;;;;;;20.58;44.27;100645.06;10128097;28;20076;-78
2024/03/20 13:50:29;;;;;;;9.27;6.20;;;;;;;20.41;44.07;100642.47;10137830;28;20136;-79
2024/03/20 13:55:30;;;;;;;9.55;7.03;;;;;;;19.87;44.42;100637.84;10145613;28;20060;-79
2024/03/20 14:00:33;;;;;;;9.88;7.55;;;;;;;18.83;46.01;100641.59;10131504;29;20051;-83
2024/03/20 14:05:34;;;;;;;10.23;7.03;;;;;;;19.10;46.99;100642.25;10145043;29;20143;-83
2024/03/20 14:10:35;;;;;;;10.52;7.30;;;;;;;19.21;46.01;100634.53;10088738;29;20044;-83
2024/03/20 14:15:36;;;;;;;11.02;7.45;;;;;;;19.00;45.72;100635.09;10128858;28;20080;-83
2024/03/20 14:20:37;;;;;;;10.40;7.47;;;;;;;18.65;47.70;100633.63;10123293;28;20742;-84
2024/03/20 14:25:39;;;;;;;12.27;8.33;;;;;;;18.39;47.61;100633.78;10125630;28;20130;-84
2024/03/20 14:30:41;;;;;;;12.17;9.17;;;;;;;18.61;47.73;100626.81;10126433;28;20131;-85
2024/03/20 14:35:43;;;;;;;13.48;8.80;;;;;;;18.67;46.99;100630.72;10098558;29;20062;-85
2024/03/20 14:40:44;;;;;;;13.20;8.82;;;;;;;18.05;47.39;100633.94;10102623;29;20706;-85
2024/03/20 14:45:45;;;;;;;11.27;7.97;;;;;;;17.70;48.34;100633.97;10123493;28;20052;-84
2024/03/20 14:50:46;;;;;;;12.25;8.18;;;;;;;17.92;48.08;100635.22;10126880;28;20087;-83
2024/03/20 14:55:46;;;;;;;10.48;9.38;;;;;;;18.14;47.55;100632.91;10131931;29;20078;-83
2024/03/20 15:00:47;;;;;;;11.95;9.07;;;;;;;18.68;47.81;100619.66;10133138;28;20048;-83
2024/03/20 15:05:48;;;;;;;12.02;8.90;;;;;;;18.30;46.96;100624.78;10105842;29;20118;-83
2024/03/20 15:10:49;;;;;;;10.15;7.68;;;;;;;18.61;46.01;100618.63;10119632;28;20055;-82
2024/03/20 15:15:50;;;;;;;10.07;8.38;;;;;;;18.57;46.19;100607.25;10121932;29;20187;-83
2024/03/20 15:20:51;;;;;;;12.68;8.50;;;;;;;18.35;46.78;100608.81;10153895;28;21765;-83
2024/03/20 15:25:52;;;;;;;10.98;7.25;;;;;;;18.10;46.58;100615.22;10130721;29;20119;-83
2024/03/20 15:30:53;;;;;;;9.77;7.63;;;;;;;18.00;47.74;100612.69;10127458;28;20143;-83
2024/03/20 15:35:54;;;;;;;7.78;6.97;;;;;;;17.70;47.79;100608.66;10129348;29;20047;-83
2024/03/20 15:40:57;;;;;;;9.45;6.90;;;;;;;18.79;46.15;100613.91;10129183;28;20067;-83
2024/03/20 15:45:58;;;;;;;13.50;7.78;;;;;;;18.43;45.84;100616.13;10127831;29;20056;-83
2024/03/20 15:50:59;;;;;;;7.68;6.97;;;;;;;17.87;47.04;100607.69;10136192;28;20079;-83
2024/03/20 15:56:01;;;;;;;9.77;7.00;;;;;;;18.88;44.61;100603.84;10125549;29;20071;-83
2024/03/20 16:01:03;;;;;;;8.25;7.43;;;;;;;18.34;45.65;100611.69;10145906;29;20048;-84
2024/03/20 16:06:21;;;;;;;8.67;7.53;;;;;;;18.47;46.64;100605.75;10112514;28;20059;-82
2024/03/20 16:11:53;;;;;;;9.77;7.63;;;;;;;18.90;46.94;100615.41;10150640;29;20382;-83
2024/03/20 16:16:54;;;;;;;10.02;8.25;;;;;;;18.82;45.92;100611.88;10147995;28;20058;-83
2024/03/20 16:21:56;;;;;;;10.73;8.45;;;;;;;18.72;46.03;100612.84;10130055;28;20056;-83
2024/03/20 16:26:57;;;;;;;9.57;8.57;;;;;;;18.26;46.43;100615.22;10120658;29;20067;-84
2024/03/20 16:31:58;;;;;;;9.80;8.80;;;;;;;17.73;48.56;100615.66;10121923;28;20296;-84
2024/03/20 16:37:02;;;;;;;10.50;8.77;;;;;;;17.20;48.99;100628.50;10152154;28;20162;-83
2024/03/20 16:42:03;;;;;;;14.07;9.40;;;;;;;16.95;50.39;100616.59;10156009;29;20048;-84
2024/03/20 16:47:04;;;;;;;11.57;10.38;;;;;;;17.12;49.87;100621.13;10138231;28;20052;-82
2024/03/20 16:52:06;;;;;;;15.80;11.35;;;;;;;17.31;49.71;100627.38;10152072;29;20140;-83
2024/03/20 16:57:07;;;;;;;13.07;11.77;;;;;;;17.09;49.66;100620.63;10128150;28;20080;-84
2024/03/20 17:02:13;;;;;;;15.85;12.20;;;;;;;17.05;50.87;100620.06;10123184;28;20052;-85
2024/03/20 17:07:14;;;;;;;15.00;12.05;;;;;;;16.94;50.85;100617.63;10150074;29;20070;-83
2024/03/20 17:12:15;;;;;;;16.15;13.35;;;;;;;17.02;50.26;100615.81;10138685;29;20048;-84
2024/03/20 17:17:16;;;;;;;17.80;12.30;;;;;;;17.01;49.97;100611.41;10137767;28;20055;-83
2024/03/20 17:22:17;;;;;;;13.05;11.70;;;;;;;16.97;50.13;100625.44;10132218;28;20056;-83
2024/03/20 17:27:18;;;;;;;12.60;11.30;;;;;;;16.82;50.76;100625.19;10134154;28;20079;-84
2024/03/20 17:32:20;;;;;;;15.70;12.50;;;;;;;16.72;51.22;100628.00;10171440;29;20058;-85
2024/03/20 17:37:21;;;;;;;14.27;12.30;;;;;;;16.55;51.76;100629.72;10147904;28;20052;-84
2024/03/20 17:42:22;;;;;;;12.97;11.60;;;;;;;16.40;52.31;100625.91;10123905;28;20423;-83
2024/03/20 17:47:23;;;;;;;13.43;12.10;;;;;;;16.26;53.15;100635.41;10102654;29;20055;-83
2024/03/20 17:52:24;;;;;;;14.88;12.93;;;;;;;16.10;54.48;100633.38;10143976;28;20051;-84
2024/03/20 17:57:25;;;;;;;13.18;11.82;;;;;;;15.97;55.46;100637.47;10126761;28;20597;-82
2024/03/20 18:02:26;;;;;;;15.40;12.68;;;;;;;15.81;55.60;100638.16;10142670;28;21170;-85
2024/03/20 18:07:27;;;;;;;16.02;14.32;;;;;;;15.65;55.94;100642.38;10122341;28;20080;-83
2024/03/20 18:12:28;;;;;;;15.40;13.77;;;;;;;15.56;56.21;100637.88;10123603;28;20076;-84
2024/03/20 18:17:29;;;;;;;15.60;13.33;;;;;;;15.47;56.87;100636.91;10104743;28;20056;-84
2024/03/20 18:22:30;;;;;;;18.75;14.57;;;;;;;15.40;57.17;100641.22;10135867;28;20067;-84
2024/03/20 18:27:31;;;;;;;16.13;14.40;;;;;;;15.36;57.67;100642.53;10126554;28;20087;-86
2024/03/20 18:32:32;;;;;;;17.20;15.43;;;;;;;15.34;57.71;100647.22;10133533;29;20048;-86
2024/03/20 18:37:34;;;;;;;19.77;15.90;;;;;;;15.31;58.12;100638.53;10138747;28;20082;-85
2024/03/20 18:42:35;;;;;;;18.13;16.17;;;;;;;15.27;57.92;100638.81;10085952;29;22722;-86
2024/03/20 18:47:36;;;;;;;19.45;15.18;;;;;;;15.23;57.88;100637.41;10119817;29;20099;-84
2024/03/20 18:52:37;;;;;;;19.27;17.20;;;;;;;15.20;58.25;100639.56;10130812;28;20126;-87
2024/03/20 18:57:39;;;;;;;22.45;17.73;;;;;;;15.14;58.82;100638.31;10152580;28;20503;-84
2024/03/20 19:02:45;;;;;;;22.85;18.17;;;;;;;15.02;58.92;100650.28;10124140;28;20052;-86
2024/03/20 19:07:48;;;;;;;25.95;17.98;;;;;;;14.97;58.46;100660.69;10154260;28;20058;-85
2024/03/20 19:12:49;;;;;;;21.55;18.23;;;;;;;14.93;58.72;100652.03;10149573;29;20148;-86
2024/03/20 19:17:49;;;;;;;19.20;16.52;;;;;;;14.89;59.43;100655.16;10127021;28;20047;-86
2024/03/20 19:22:52;;;;;;;22.23;17.58;;;;;;;14.79;59.18;100661.47;10141350;28;20054;-88
2024/03/20 19:27:53;;;;;;;20.80;17.80;;;;;;;14.79;59.23;100661.47;10121120;28;20072;-87
2024/03/20 19:32:54;;;;;;;22.58;18.80;;;;;;;14.77;59.04;100663.44;10107044;28;20052;-87
2024/03/20 19:37:57;;;;;;;22.47;17.97;;;;;;;14.76;60.00;100666.31;10130616;28;20603;-88
2024/03/20 19:42:58;;;;;;;22.30;17.60;;;;;;;14.74;60.01;100671.84;10155761;28;20292;-87
2024/03/20 19:47:59;;;;;;;21.85;17.85;;;;;;;14.77;59.90;100670.72;10140797;28;20372;-88
2024/03/20 19:53:01;;;;;;;23.55;17.88;;;;;;;14.79;59.85;100669.56;10126322;28;20059;-87
2024/03/20 19:58:02;;;;;;;22.13;19.57;;;;;;;14.80;59.75;100656.91;10126002;28;20056;-86
2024/03/20 20:03:03;;;;;;;23.27;19.17;;;;;;;14.73;60.12;100653.94;10148939;28;20135;-87
2024/03/20 20:08:04;;;;;;;25.83;19.92;;;;;;;14.65;60.72;100653.81;10110645;28;20119;-86
2024/03/20 20:13:07;;;;;;;25.70;20.17;;;;;;;14.56;61.32;100654.66;10132976;29;20052;-86
2024/03/20 20:18:09;;;;;;;33.20;26.40;;;;;;;14.49;61.18;100653.53;10163216;28;20175;-87
2024/03/20 20:23:10;;;;;;;37.97;30.67;;;;;;;14.46;61.16;100661.94;10157177;28;20067;-87
2024/03/20 20:28:14;;;;;;;40.33;31.40;;;;;;;14.36;61.35;100665.44;10114523;28;20080;-86
2024/03/20 20:33:15;;;;;;;41.30;30.25;;;;;;;14.32;61.98;100660.47;10123957;28;20091;-85
2024/03/20 20:38:19;;;;;;;36.67;28.60;;;;;;;14.15;62.78;100652.09;10150396;28;20107;-86
2024/03/20 20:43:20;;;;;;;41.45;29.75;;;;;;;14.18;62.76;100666.28;10127703;29;20076;-85
2024/03/20 20:48:22;;;;;;;38.95;30.02;;;;;;;14.07;63.15;100669.97;10157787;28;20084;-85
2024/03/20 20:53:23;;;;;;;40.20;29.70;;;;;;;13.92;63.84;100672.22;10159878;29;20043;-86
2024/03/20 20:58:25;;;;;;;37.80;29.00;;;;;;;13.84;64.84;100672.91;10145282;28;20058;-86
2024/03/20 21:24:48;;;;;;;38.97;28.88;;;;;;;13.98;64.40;100668.97;10155691;28;20052;-85
2024/03/20 21:29:52;;;;;;;34.67;26.95;;;;;;;13.98;64.17;100670.81;10149832;29;20135;-86
2024/03/20 21:34:53;;;;;;;31.92;24.33;;;;;;;13.96;64.04;100673.69;10124521;29;20155;-87
2024/03/20 21:39:55;;;;;;;29.97;24.03;;;;;;;13.88;64.64;100668.13;10136435;29;20055;-86
2024/03/20 21:44:56;;;;;;;35.78;24.10;;;;;;;13.84;65.02;100663.97;10136027;29;20064;-86
2024/03/20 21:49:57;;;;;;;30.27;23.52;;;;;;;13.81;65.31;100666.94;10107431;29;20720;-87
2024/03/20 21:54:58;;;;;;;29.02;22.80;;;;;;;13.73;65.87;100664.09;10112468;29;20143;-88
2024/03/20 21:59:59;;;;;;;30.63;23.98;;;;;;;13.67;66.42;100663.63;10114967;28;20056;-86
2024/03/20 22:05:00;;;;;;;30.77;23.80;;;;;;;13.52;67.22;100670.44;10170364;28;20083;-86
2024/03/20 22:10:02;;;;;;;35.72;23.02;;;;;;;13.60;67.48;100676.00;10121076;28;20056;-87
2024/03/20 22:15:04;;;;;;;29.13;24.60;;;;;;;13.53;68.48;100680.22;10150093;28;20075;-86
2024/03/20 22:20:06;;;;;;;30.58;24.45;;;;;;;13.46;69.83;100676.34;10124659;29;20052;-86
2024/03/20 22:25:08;;;;;;;;;;;;;;;13.45;71.25;100677.34;10100435;29;20051;-87
2024/03/20 22:30:13;;;;;;;28.60;24.38;;;;;;;13.37;73.03;100663.69;10136512;28;20383;-86
2024/03/20 22:35:14;;;;;;;29.38;25.42;;;;;;;13.30;74.79;100668.72;10127465;28;20131;-87
2024/03/20 22:40:15;;;;;;;37.38;26.83;;;;;;;13.21;76.52;100658.75;10145665;28;20047;-86
2024/03/20 22:45:18;;;;;;;35.20;25.02;;;;;;;13.14;77.32;100657.59;10117786;28;20122;-87
2024/03/20 22:50:19;;;;;;;34.75;25.75;;;;;;;13.09;77.69;100654.44;10125697;28;20106;-86
2024/03/20 22:55:21;;;;;;;36.97;27.67;;;;;;;13.03;77.84;100653.97;10144132;29;20047;-86
2024/03/20 23:05:50;;;;;;;35.63;26.48;;;;;;;13.04;75.53;100655.69;10136421;28;20055;-86
2024/03/20 23:10:52;;;;;;;35.63;25.25;;;;;;;13.11;74.36;100649.75;10095144;28;20076;-86
2024/03/20 23:15:53;;;;;;;32.78;25.23;;;;;;;13.11;73.81;100649.75;10122706;29;20870;-86
2024/03/20 23:20:54;;;;;;;40.35;25.52;;;;;;;13.13;73.48;100647.78;10104375;28;21265;-86